Time;durP1;ratioP1;P1;durP2;ratioP2;P2;SDS_P1;SDS_P2;PMS_P1;PMS_P2;Temp;Humidity;BMP_temperature;BMP_pressure;BME280_temperature;BME280_humidity;BME280_pressure;Samples;Min_cycle;Max_cycle;Signal;HPM_P1;HPM_P2
2023/10/26 02:08:23;;;;;;;;;;;;;;;;;;;;;
2023/10/26 03:11:16;;;;;;;18.40;8.60;;;;;;;8.14;76.70;97382.65;111636;1232;94532;-91
2023/10/26 03:17:50;;;;;;;21.10;10.10;;;;;;;8.16;76.78;97378.23;110591;1234;95784;-91
2023/10/26 03:36:49;;;;;;;;;;;;;;;;;;;;;
2023/10/26 04:02:38;;;;;;;20.00;8.20;;;;;;;7.95;76.47;97351.17;109347;1232;114167;-77
2023/10/26 04:05:16;;;;;;;17.80;8.50;;;;;;;7.98;76.52;97347.73;108429;1244;96573;-80
2023/10/26 04:07:47;;;;;;;16.90;8.10;;;;;;;7.99;76.52;97342.84;108248;1234;107591;-79
2023/10/26 04:10:21;;;;;;;16.40;7.70;;;;;;;7.94;76.45;97337.41;108560;1234;97800;-76
2023/10/26 04:13:05;;;;;;;20.20;8.80;;;;;;;7.92;76.37;97334.10;108438;1232;97615;-78
2023/10/26 04:15:37;;;;;;;18.50;8.50;;;;;;;7.80;76.38;97330.42;108160;1242;109961;-78
2023/10/26 04:18:05;;;;;;;19.00;8.20;;;;;;;7.73;76.46;97332.90;108643;1234;96576;-76
2023/10/26 04:20:32;;;;;;;18.40;8.80;;;;;;;7.71;76.53;97331.15;108580;1232;107487;-76
2023/10/26 04:23:20;;;;;;;16.00;8.00;;;;;;;7.65;76.38;97332.08;108260;1245;96564;-78
2023/10/26 04:25:57;;;;;;;16.30;7.80;;;;;;;7.61;76.34;97321.84;108648;1234;97485;-78
2023/10/26 04:28:28;;;;;;;15.90;7.50;;;;;;;7.55;76.44;97317.22;108489;1235;110145;-77
2023/10/26 04:30:57;;;;;;;16.70;7.80;;;;;;;7.51;76.33;97313.83;108693;1235;97364;-78
2023/10/26 04:33:28;;;;;;;17.10;7.50;;;;;;;7.56;76.41;97310.77;111452;1230;107107;-76
2023/10/26 04:36:21;;;;;;;17.80;8.30;;;;;;;7.57;76.53;97308.54;111529;1230;94589;-76
2023/10/26 04:39:01;;;;;;;16.60;7.50;;;;;;;7.58;76.51;97313.45;111616;1230;94812;-76
2023/10/26 04:41:46;;;;;;;17.20;7.40;;;;;;;7.53;76.32;97303.70;111716;1230;109391;-78
2023/10/26 04:44:38;;;;;;;;;;;;;;;;;;;;;
2023/10/26 04:47:15;;;;;;;18.30;7.40;;;;;;;7.36;76.00;97291.52;110689;1232;108893;-79
2023/10/26 04:49:54;;;;;;;16.50;7.80;;;;;;;7.31;76.16;97292.83;109608;1237;96673;-78
2023/10/26 04:53:09;;;;;;;;;;;;;;;;;;;;;
2023/10/26 04:57:37;;;;;;;14.00;7.00;;;;;;;7.39;76.07;97296.45;108313;1234;111282;-77
2023/10/26 05:01:05;;;;;;;14.50;7.00;;;;;;;7.42;76.13;97302.63;108824;1241;96496;-76
2023/10/26 05:04:18;;;;;;;;;;;;;;;;;;;;;
2023/10/26 05:10:55;;;;;;;;;;;;;;;;;;;;;
2023/10/26 05:14:02;;;;;;;;;;;;;;;;;;;;;
2023/10/26 05:17:04;;;;;;;19.70;7.90;;;;;;;7.43;76.02;97311.57;107599;1244;97727;-79
2023/10/26 05:20:38;;;;;;;17.80;8.10;;;;;;;7.37;76.17;97312.63;108458;1235;108595;-77
2023/10/26 05:23:37;;;;;;;;;;;;;;;;;;;;;
2023/10/26 05:26:43;;;;;;;18.50;8.70;;;;;;;7.36;76.18;97308.45;108355;1236;96592;-77
2023/10/26 05:29:46;;;;;;;;;;;;;;;;;;;;;
2023/10/26 05:33:31;;;;;;;;;;;;;;;;;;;;;
2023/10/26 05:37:14;;;;;;;14.50;6.70;;;;;;;7.37;76.19;97308.06;108105;1239;111399;-77
2023/10/26 05:40:34;;;;;;;16.00;7.80;;;;;;;7.44;76.26;97309.58;107623;1242;97195;-77
2023/10/26 05:43:26;;;;;;;14.90;7.40;;;;;;;7.53;76.39;97306.64;107391;1244;96758;-78
2023/10/26 05:46:39;;;;;;;;;;;;;;;;;;;;;
2023/10/26 05:49:54;;;;;;;;;;;;;;;7.64;76.36;97310.98;108976;1236;96864;-77
2023/10/26 05:54:07;;;;;;;16.20;7.50;;;;;;;7.60;76.32;97306.89;109440;1237;107335;-76
2023/10/26 06:06:09;;;;;;;15.00;7.20;;;;;;;7.92;76.66;97308.01;108018;1232;110772;-77
2023/10/26 06:13:02;;;;;;;;;;;;;;;;;;;;;
2023/10/26 06:19:53;;;;;;;15.30;6.90;;;;;;;8.74;77.73;97319.69;104938;1265;107598;-77
2023/10/26 06:23:17;;;;;;;14.30;6.70;;;;;;;8.89;77.79;97315.04;98842;1263;8444732;-78
2023/10/26 06:26:13;;;;;;;;;;;;;;;;;;;;;
2023/10/26 06:30:07;;;;;;;;;;;;;;;;;;;;;
2023/10/26 06:38:05;;;;;;;;;;;;;;;;;;;;;
2023/10/26 06:46:23;;;;;;;;;;;;;;;;;;;;;
2023/10/26 06:49:47;;;;;;;;;;;;;;;;;;;;;
2023/10/26 06:53:27;;;;;;;;;;;;;;;;;;;;;
2023/10/26 06:56:38;;;;;;;;;;;;;;;;;;;;;
2023/10/26 07:00:13;;;;;;;17.20;8.20;;;;;;;9.88;78.31;97296.66;105145;1261;108052;-78
2023/10/26 07:04:36;;;;;;;25.10;11.10;;;;;;;10.02;78.35;97300.58;104546;1260;96373;-77
2023/10/26 07:09:16;;;;;;;35.10;18.00;;;;;;;10.13;78.16;97298.80;104588;1271;95254;-78
2023/10/26 07:17:44;;;;;;;26.20;14.10;;;;;;;10.27;78.19;97295.59;103480;1280;95939;-77
2023/10/26 07:21:11;;;;;;;;;;;;;;;;;;;;;
2023/10/26 07:31:27;;;;;;;;;;;;;;;;;;;;;
2023/10/26 07:34:18;;;;;;;13.30;6.50;;;;;;;11.09;79.15;97292.20;104240;1278;98181;-77
2023/10/26 07:36:57;;;;;;;12.30;6.90;;;;;;;11.20;79.03;97285.20;103330;1281;108222;-77
2023/10/26 07:40:06;;;;;;;14.50;6.40;;;;;;;11.33;79.15;97284.83;103162;1274;96202;-77
2023/10/26 07:44:26;;;;;;;;;;;;;;;;;;;;;
2023/10/26 07:52:12;;;;;;;;;;;;;;;;;;;;;
2023/10/26 07:56:50;;;;;;;;;;;;;;;;;;;;;
2023/10/26 07:59:39;;;;;;;14.10;6.70;;;;;;;11.82;79.36;97286.77;105400;1273;94439;-77
2023/10/26 08:03:09;;;;;;;;;;;;;;;;;;;;;
2023/10/26 08:07:22;;;;;;;15.00;7.10;;;;;;;11.96;79.37;97282.33;104058;1279;109963;-77
2023/10/26 08:10:38;;;;;;;;;;;;;;;;;;;;;
2023/10/26 08:13:13;;;;;;;15.10;7.10;;;;;;;12.07;79.43;97283.13;104669;1278;110496;-77
2023/10/26 08:16:07;;;;;;;14.20;6.90;;;;;;;12.15;79.45;97282.08;104543;1278;95265;-77
2023/10/26 08:19:15;;;;;;;;;;;;;;;;;;;;;
2023/10/26 08:21:49;;;;;;;18.60;8.00;;;;;;;12.29;79.61;97274.95;104751;1263;109956;-78
2023/10/26 08:24:28;;;;;;;18.00;7.90;;;;;;;12.35;79.58;97282.21;104958;1262;95223;-77
2023/10/26 08:27:44;;;;;;;20.70;9.00;;;;;;;12.41;79.60;97282.81;105023;1263;107358;-79
2023/10/26 08:31:35;;;;;;;17.10;7.90;;;;;;;12.47;79.58;97280.91;105224;1260;96156;-79
2023/10/26 08:34:18;;;;;;;16.90;8.00;;;;;;;12.55;79.64;97280.23;104857;1257;95263;-78
2023/10/26 08:37:15;;;;;;;;;;;;;;;;;;;;;
2023/10/26 08:40:12;;;;;;;;;;;;;;;;;;;;;
2023/10/26 08:43:10;;;;;;;14.00;6.80;;;;;;;12.77;79.73;97278.58;105020;1256;108018;-78
2023/10/26 08:45:39;;;;;;;16.30;7.50;;;;;;;12.83;79.82;97290.34;105011;1270;95395;-77
2023/10/26 08:48:40;;;;;;;16.00;7.20;;;;;;;12.89;79.80;97300.36;104999;1263;95277;-78
2023/10/26 08:52:09;;;;;;;14.70;7.10;;;;;;;12.98;79.83;97298.58;104946;1260;109970;-78
2023/10/26 08:54:54;;;;;;;;;;;;;;;;;;;;;
2023/10/26 08:57:33;;;;;;;13.70;6.80;;;;;;;13.18;79.96;97302.23;105027;1263;107544;-78
2023/10/26 09:01:24;;;;;;;15.00;6.80;;;;;;;13.34;79.84;97299.48;102120;1291;651761;-76
2023/10/26 09:04:29;;;;;;;10.20;5.70;;;;;;;13.44;79.88;97303.95;104965;1269;94480;-77
2023/10/26 09:07:45;;;;;;;;;;;;;;;;;;;;;
2023/10/26 09:10:57;;;;;;;13.10;6.20;;;;;;;13.57;79.90;97304.34;105067;1256;107332;-79
2023/10/26 09:13:39;;;;;;;12.50;6.30;;;;;;;13.59;79.87;97308.88;100919;1264;5381627;-78
2023/10/26 09:16:55;;;;;;;13.10;5.90;;;;;;;13.58;79.89;97303.09;105342;1259;107033;-77
2023/10/26 09:20:01;;;;;;;;;;;;;;;;;;;;;
2023/10/26 09:23:18;;;;;;;;;;;;;;;;;;;;;
2023/10/26 09:26:17;;;;;;;12.70;6.50;;;;;;;13.62;80.02;97291.96;105334;1256;109099;-77
2023/10/26 09:29:12;;;;;;;11.40;5.90;;;;;;;13.68;80.05;97284.27;105422;1254;95451;-79
2023/10/26 09:32:31;;;;;;;;;;;;;;;;;;;;;
2023/10/26 09:35:14;;;;;;;;;;;;;;;;;;;;;
2023/10/26 09:37:58;;;;;;;13.40;6.10;;;;;;;13.88;80.15;97283.03;105210;1258;95293;-77
2023/10/26 09:40:53;;;;;;;14.00;6.90;;;;;;;13.92;80.07;97277.92;105485;1257;107451;-77
2023/10/26 09:43:57;;;;;;;13.80;6.30;;;;;;;13.92;80.01;97275.69;105121;1255;96177;-77
2023/10/26 09:47:09;;;;;;;;;;;;;;;;;;;;;
2023/10/26 09:50:20;;;;;;;13.40;6.00;;;;;;;13.98;80.00;97266.83;105365;1258;95329;-77
2023/10/26 09:53:44;;;;;;;;;;;;;;;;;;;;;
2023/10/26 09:57:56;;;;;;;11.10;5.60;;;;;;;14.16;80.01;97248.07;105398;1255;110601;-77
2023/10/26 10:15:39;;;;;;;11.20;6.30;;;;;;;14.79;79.58;97208.90;105399;1260;649161;-77
2023/10/26 10:19:39;;;;;;;9.40;4.70;;;;;;;14.86;79.62;97192.44;107428;1243;261298;-78
2023/10/26 10:22:51;;;;;;;;;;;;;;;;;;;;;
2023/10/26 10:26:03;;;;;;;12.00;5.10;;;;;;;14.78;79.57;97188.08;108462;1238;107099;-79
2023/10/26 10:29:01;;;;;;;;;;;;;;;;;;;;;
2023/10/26 10:32:11;;;;;;;;;;;;;;;;;;;;;
